KCDN/CDN METAR and TAF weather

Enter ICAO airport designator
Station Type Date Time Source
KCDN METAR 2019/12/11 15:15 UTC NOAA

KCDN 111515Z AUTO 01009KT 10SM CLR 08/04 A3039 RMK AO2


Station Type Date Time Source
KCDN Decoded METAR 2019/12/11 15:15 UTC NOAA

Station name not available
Dec 11, 2019 - 10:15 AM EST / 2019.12.11 1515 UTC
Wind: from the N (010 degrees) at 10 MPH (9 KT):0
Visibility: 10 mile(s):0
Sky conditions: clear
Temperature: 46 F (8 C)
Dew Point: 39 F (4 C)
Relative Humidity: 75%
Pressure (altimeter): 30.39 in. Hg (1029 hPa)
ob: KCDN 111515Z AUTO 01009KT 10SM CLR 08/04 A3039 RMK AO2
cycle: 15

Station Type Date Time Source
KCDN TAF UTC NOAA

Error!

Example: see airport list